createdAt,value
2017-06-11T00:00:39.135Z,99.99
2017-06-11T00:01:19.665Z,99.99
2017-06-11T00:02:00.254Z,99.99
2017-06-11T00:02:40.789Z,99.99
2017-06-11T00:03:21.333Z,99.99
2017-06-11T00:04:01.868Z,99.99
2017-06-11T00:04:42.411Z,99.99
2017-06-11T00:05:22.951Z,99.99
2017-06-11T00:06:03.497Z,99.99
2017-06-11T00:06:44.032Z,99.99
2017-06-11T00:07:24.573Z,99.99
2017-06-11T00:08:05.115Z,99.99
2017-06-11T00:08:45.659Z,99.99
2017-06-11T00:09:26.197Z,99.99
2017-06-11T00:10:06.760Z,99.99
2017-06-11T00:10:47.283Z,99.99
2017-06-11T00:11:27.827Z,99.99
2017-06-11T00:12:08.368Z,99.99
2017-06-11T00:12:48.909Z,99.99
2017-06-11T00:13:29.441Z,99.99
2017-06-11T00:14:09.990Z,99.99
2017-06-11T00:14:50.529Z,99.99
2017-06-11T00:15:31.065Z,99.99
2017-06-11T00:16:11.610Z,99.99
2017-06-11T00:16:52.155Z,99.99
2017-06-11T00:17:32.691Z,99.99
2017-06-11T00:18:13.304Z,99.99
2017-06-11T00:18:53.842Z,99.99
2017-06-11T00:19:34.374Z,99.99
2017-06-11T00:20:14.920Z,99.99
2017-06-11T00:20:55.468Z,99.99
2017-06-11T00:21:36.012Z,99.99
2017-06-11T00:22:16.567Z,99.99
2017-06-11T00:22:57.094Z,99.99
2017-06-11T00:23:37.641Z,99.99
2017-06-11T00:24:18.183Z,99.99
2017-06-11T00:24:58.718Z,99.99
2017-06-11T00:25:39.256Z,99.99
2017-06-11T00:26:19.799Z,99.99
2017-06-11T00:27:00.338Z,99.99
2017-06-11T00:27:40.886Z,99.99
2017-06-11T00:28:21.431Z,99.99
2017-06-11T00:29:01.984Z,99.99
2017-06-11T00:29:42.525Z,99.99
2017-06-11T00:30:23.090Z,99.99
2017-06-11T00:31:03.643Z,99.99
2017-06-11T00:31:44.188Z,99.99
2017-06-11T00:32:24.728Z,99.99
2017-06-11T00:33:05.273Z,99.99
2017-06-11T00:33:45.819Z,99.99
2017-06-11T00:34:26.348Z,99.99
2017-06-11T00:35:06.893Z,99.99
2017-06-11T00:35:47.435Z,99.99
2017-06-11T00:36:27.974Z,99.99
2017-06-11T00:37:08.514Z,99.99
2017-06-11T00:37:49.051Z,99.99
2017-06-11T00:38:29.594Z,99.99
2017-06-11T00:39:10.135Z,99.99
2017-06-11T00:39:50.694Z,99.99
2017-06-11T00:40:31.236Z,99.99
2017-06-11T00:41:11.772Z,99.99
2017-06-11T00:41:52.308Z,99.99
2017-06-11T00:42:32.851Z,99.99
2017-06-11T00:43:13.390Z,99.99
2017-06-11T00:43:53.932Z,99.99
2017-06-11T00:44:34.539Z,99.99
2017-06-11T00:45:15.077Z,99.99
2017-06-11T00:45:55.614Z,99.99
2017-06-11T00:46:36.159Z,99.99
2017-06-11T00:47:16.695Z,99.99
2017-06-11T00:47:57.240Z,99.99
2017-06-11T00:48:37.776Z,99.99
2017-06-11T00:49:18.313Z,99.99
2017-06-11T00:49:58.856Z,99.99
2017-06-11T00:50:39.400Z,99.99
2017-06-11T00:51:19.935Z,99.99
2017-06-11T00:52:00.478Z,99.99
2017-06-11T00:52:41.003Z,99.99
2017-06-11T00:53:21.543Z,99.99
2017-06-11T00:54:02.081Z,99.99
2017-06-11T00:54:42.624Z,99.99
2017-06-11T00:55:23.167Z,99.99
2017-06-11T00:56:03.711Z,99.99
2017-06-11T00:56:44.256Z,99.99
2017-06-11T00:57:24.802Z,99.99
2017-06-11T00:58:05.346Z,99.99
2017-06-11T00:58:45.884Z,99.99
2017-06-11T00:59:26.429Z,99.99
2017-06-11T01:00:06.967Z,99.99
2017-06-11T01:00:47.492Z,99.99
2017-06-11T01:01:28.026Z,99.99
2017-06-11T01:02:08.568Z,99.99
2017-06-11T01:02:49.112Z,99.99
2017-06-11T01:03:29.658Z,99.99
2017-06-11T01:04:10.198Z,99.99
2017-06-11T01:04:50.741Z,99.99
2017-06-11T01:05:31.299Z,99.99
2017-06-11T01:06:11.845Z,99.99
2017-06-11T01:06:52.387Z,99.99
2017-06-11T01:07:32.923Z,99.99
2017-06-11T01:08:13.467Z,99.99
2017-06-11T01:08:54.009Z,99.99
2017-06-11T01:09:34.544Z,99.99
2017-06-11T01:10:15.083Z,99.99
2017-06-11T01:10:55.627Z,99.99
2017-06-11T01:11:36.186Z,99.99
2017-06-11T01:12:16.733Z,99.99
2017-06-11T01:12:57.279Z,99.99
2017-06-11T01:13:37.825Z,99.99
2017-06-11T01:14:18.372Z,99.99
2017-06-11T01:14:58.921Z,99.99
2017-06-11T01:15:39.460Z,99.99
2017-06-11T01:16:20.002Z,99.99
2017-06-11T01:17:00.546Z,99.99
2017-06-11T01:17:41.070Z,99.99
2017-06-11T01:18:21.608Z,99.99
2017-06-11T01:19:02.141Z,99.99
2017-06-11T01:19:42.678Z,99.99
2017-06-11T01:20:23.226Z,99.99
2017-06-11T01:21:03.769Z,99.99
2017-06-11T01:21:44.316Z,99.99
2017-06-11T01:22:24.844Z,99.99
2017-06-11T01:23:05.382Z,99.99
2017-06-11T01:23:45.919Z,99.99
2017-06-11T01:24:26.469Z,99.99
2017-06-11T01:25:06.999Z,99.99
2017-06-11T01:25:47.542Z,99.99
2017-06-11T01:26:28.085Z,99.99
2017-06-11T01:27:08.643Z,99.99
2017-06-11T01:27:49.173Z,99.99
2017-06-11T01:28:29.714Z,99.99
2017-06-11T01:29:10.255Z,99.99
2017-06-11T01:29:50.814Z,99.99
2017-06-11T01:30:31.341Z,99.99
2017-06-11T01:31:11.890Z,99.99
2017-06-11T01:31:52.431Z,99.99
2017-06-11T01:32:32.970Z,99.99
2017-06-11T01:33:13.510Z,99.99
2017-06-11T01:33:54.062Z,99.99
2017-06-11T01:34:34.591Z,99.99
2017-06-11T01:35:15.136Z,99.99
2017-06-11T01:35:55.678Z,99.99
2017-06-11T01:36:36.224Z,99.99
2017-06-11T01:37:16.767Z,99.99
2017-06-11T01:37:57.305Z,99.99
2017-06-11T01:38:37.841Z,99.99
2017-06-11T01:39:18.378Z,99.99
2017-06-11T01:39:58.958Z,99.99
2017-06-11T01:40:39.492Z,99.99
2017-06-11T01:41:20.035Z,99.99
2017-06-11T01:42:00.570Z,99.99
2017-06-11T01:42:41.108Z,99.99
2017-06-11T01:43:21.649Z,99.99
2017-06-11T01:44:02.192Z,99.99
2017-06-11T01:44:42.737Z,99.99
2017-06-11T01:45:23.281Z,99.99
2017-06-11T01:46:03.818Z,99.99
2017-06-11T01:46:44.382Z,99.99
2017-06-11T01:47:24.929Z,99.99
2017-06-11T01:48:05.474Z,99.99
2017-06-11T01:48:46.014Z,99.99
2017-06-11T01:49:26.550Z,99.99
2017-06-11T01:50:07.088Z,99.99
2017-06-11T01:50:47.624Z,99.99
2017-06-11T01:51:28.163Z,99.99
2017-06-11T01:52:08.709Z,99.99
2017-06-11T01:52:49.249Z,99.99
2017-06-11T01:53:29.801Z,99.99
2017-06-11T01:54:10.346Z,99.99
2017-06-11T01:54:50.890Z,99.99
2017-06-11T01:55:31.434Z,99.99
2017-06-11T01:56:11.968Z,99.99
2017-06-11T01:56:52.497Z,99.99
2017-06-11T01:57:33.036Z,99.99
2017-06-11T01:58:13.573Z,99.99
2017-06-11T01:58:54.129Z,99.99
2017-06-11T01:59:34.670Z,99.99
2017-06-11T02:00:15.215Z,99.99
2017-06-11T02:00:55.755Z,99.99
2017-06-11T02:01:36.298Z,99.99
2017-06-11T02:02:16.844Z,99.99
2017-06-11T02:02:57.383Z,99.99
2017-06-11T02:03:37.924Z,99.99
2017-06-11T02:04:18.475Z,99.99
2017-06-11T02:04:59.006Z,99.99
2017-06-11T02:05:39.557Z,99.99
2017-06-11T02:06:20.098Z,99.99
2017-06-11T02:07:00.634Z,99.99
2017-06-11T02:07:41.163Z,99.99
2017-06-11T02:08:21.703Z,99.99
2017-06-11T02:09:02.248Z,99.99
2017-06-11T02:09:42.794Z,99.99
2017-06-11T02:10:23.331Z,99.99
2017-06-11T02:11:03.907Z,99.99
2017-06-11T02:11:44.422Z,99.99
2017-06-11T02:12:24.961Z,99.99
2017-06-11T02:13:05.499Z,99.99
2017-06-11T02:13:46.038Z,99.99
2017-06-11T02:14:26.615Z,99.99
2017-06-11T02:15:07.150Z,99.99
2017-06-11T02:15:47.687Z,99.99
2017-06-11T02:16:28.223Z,99.99
2017-06-11T02:17:08.748Z,99.99
2017-06-11T02:17:49.286Z,99.99
2017-06-11T02:18:29.828Z,99.99
2017-06-11T02:19:10.341Z,99.99
2017-06-11T02:19:50.892Z,99.99
2017-06-11T02:20:31.433Z,99.99
2017-06-11T02:21:11.974Z,99.99
2017-06-11T02:21:52.493Z,99.99
2017-06-11T02:22:33.040Z,99.99
2017-06-11T02:23:13.572Z,99.99
2017-06-11T02:23:54.118Z,99.99
2017-06-11T02:24:34.646Z,99.99
2017-06-11T02:25:15.191Z,99.99
2017-06-11T02:25:55.722Z,99.99
2017-06-11T02:26:36.266Z,99.99
2017-06-11T02:27:16.807Z,99.99
2017-06-11T02:27:57.347Z,99.99
2017-06-11T02:28:37.889Z,99.99
2017-06-11T02:29:18.430Z,99.99
2017-06-11T02:29:58.958Z,99.99
2017-06-11T02:30:39.505Z,99.99
2017-06-11T02:31:20.044Z,99.99
2017-06-11T02:32:00.584Z,99.99
2017-06-11T02:32:41.128Z,99.99
2017-06-11T02:33:21.677Z,99.99
2017-06-11T02:34:02.226Z,99.99
2017-06-11T02:34:42.774Z,99.99
2017-06-11T02:35:23.317Z,99.99
2017-06-11T02:36:03.855Z,99.99
2017-06-11T02:36:44.404Z,99.99
2017-06-11T02:37:24.941Z,99.99
2017-06-11T02:38:05.485Z,99.99
2017-06-11T02:38:46.034Z,99.99
2017-06-11T02:39:26.565Z,99.99
2017-06-11T02:40:07.107Z,99.99
2017-06-11T02:40:47.650Z,99.99
2017-06-11T02:41:28.194Z,99.99
2017-06-11T02:42:08.736Z,99.99
2017-06-11T02:42:49.280Z,99.99
2017-06-11T02:43:29.823Z,99.99
2017-06-11T02:44:10.364Z,99.99
2017-06-11T02:44:50.907Z,99.99
2017-06-11T02:45:31.444Z,99.99
2017-06-11T02:46:11.985Z,99.99
2017-06-11T02:46:52.522Z,99.99
2017-06-11T02:47:33.066Z,99.99
2017-06-11T02:48:13.611Z,99.99
2017-06-11T02:48:54.152Z,99.99
2017-06-11T02:49:34.698Z,99.99
2017-06-11T02:50:15.245Z,99.99
2017-06-11T02:50:55.788Z,99.99
2017-06-11T02:51:36.327Z,99.99
2017-06-11T02:52:16.870Z,99.99
2017-06-11T02:52:57.406Z,99.99
2017-06-11T02:53:37.953Z,99.99
2017-06-11T02:54:18.504Z,99.99
2017-06-11T02:54:59.040Z,99.99
2017-06-11T02:55:39.579Z,99.99
2017-06-11T02:56:20.122Z,99.99
2017-06-11T02:57:00.646Z,99.99
2017-06-11T02:57:41.190Z,99.99
2017-06-11T02:58:21.726Z,99.99
2017-06-11T02:59:02.292Z,99.99
2017-06-11T02:59:42.806Z,99.99
2017-06-11T03:00:23.348Z,99.99
2017-06-11T03:01:03.888Z,99.99
2017-06-11T03:01:44.422Z,99.99
2017-06-11T03:02:24.974Z,99.99
2017-06-11T03:03:05.512Z,99.99
2017-06-11T03:03:46.060Z,99.99
2017-06-11T03:04:26.595Z,99.99
2017-06-11T03:05:07.136Z,99.99
2017-06-11T03:05:47.673Z,99.99
2017-06-11T03:06:28.217Z,99.99
2017-06-11T03:07:08.757Z,99.99
2017-06-11T03:07:49.294Z,99.99
2017-06-11T03:08:29.831Z,99.99
2017-06-11T03:09:10.381Z,99.99
2017-06-11T03:09:50.923Z,99.99
2017-06-11T03:10:31.467Z,99.99
2017-06-11T03:11:11.999Z,99.99
2017-06-11T03:11:52.530Z,99.99
2017-06-11T03:12:33.061Z,99.99
2017-06-11T03:13:13.599Z,99.99
2017-06-11T03:13:54.147Z,99.99
2017-06-11T03:14:34.691Z,99.99
2017-06-11T03:15:15.227Z,99.99
2017-06-11T03:15:55.767Z,99.99
2017-06-11T03:16:36.316Z,99.99
2017-06-11T03:17:16.847Z,99.99
2017-06-11T03:17:57.398Z,99.99
2017-06-11T03:18:37.947Z,99.99
2017-06-11T03:19:18.487Z,99.99
2017-06-11T03:19:59.025Z,99.99
2017-06-11T03:20:39.580Z,99.99
2017-06-11T03:21:20.112Z,99.99
2017-06-11T03:22:00.670Z,99.99
2017-06-11T03:22:41.208Z,99.99
2017-06-11T03:23:21.749Z,99.99
2017-06-11T03:24:02.287Z,99.99
2017-06-11T03:24:42.828Z,99.99
2017-06-11T03:25:23.372Z,99.99
2017-06-11T03:26:03.906Z,99.99
2017-06-11T03:26:44.437Z,99.99
2017-06-11T03:27:24.985Z,99.99
2017-06-11T03:28:05.518Z,99.99
2017-06-11T03:28:46.059Z,99.99
2017-06-11T03:29:26.597Z,99.99
2017-06-11T03:30:07.137Z,99.99
2017-06-11T03:30:47.681Z,99.99
2017-06-11T03:31:28.223Z,99.99
2017-06-11T03:32:08.760Z,99.99
2017-06-11T03:32:49.299Z,99.99
2017-06-11T03:33:29.839Z,99.99
2017-06-11T03:34:10.382Z,99.99
2017-06-11T03:34:50.919Z,99.99
2017-06-11T03:35:31.457Z,99.99
2017-06-11T03:36:12.014Z,99.99
2017-06-11T03:36:52.550Z,99.99
2017-06-11T03:37:33.094Z,99.99
2017-06-11T03:38:13.634Z,99.99
2017-06-11T03:38:54.186Z,99.99
2017-06-11T03:39:34.712Z,99.99
2017-06-11T03:40:15.247Z,99.99
2017-06-11T03:40:55.801Z,99.99
2017-06-11T03:41:36.340Z,99.99
2017-06-11T03:42:16.880Z,99.99
2017-06-11T03:42:57.420Z,99.99
2017-06-11T03:43:37.967Z,99.99
2017-06-11T03:44:18.541Z,99.99
2017-06-11T03:44:59.055Z,99.99
2017-06-11T03:45:39.597Z,99.99
2017-06-11T03:46:20.132Z,99.99
2017-06-11T03:47:00.672Z,99.99
2017-06-11T03:47:41.214Z,99.99
2017-06-11T03:48:21.742Z,99.99
2017-06-11T03:49:02.289Z,99.99
2017-06-11T03:49:42.835Z,99.99
2017-06-11T03:50:23.376Z,99.99
2017-06-11T03:51:03.917Z,99.99
2017-06-11T03:51:44.449Z,99.99
2017-06-11T03:52:24.992Z,99.99
2017-06-11T03:53:05.514Z,99.99
2017-06-11T03:53:46.050Z,99.99
2017-06-11T03:54:26.591Z,99.99
2017-06-11T03:55:07.133Z,99.99
2017-06-11T03:55:47.687Z,99.99
2017-06-11T03:56:28.230Z,99.99
2017-06-11T03:57:08.780Z,99.99
2017-06-11T03:57:49.321Z,99.99
2017-06-11T03:58:29.870Z,99.99
2017-06-11T03:59:10.395Z,99.99
2017-06-11T03:59:50.928Z,99.99
2017-06-11T04:00:31.469Z,99.99
2017-06-11T04:01:12.016Z,99.99
2017-06-11T04:01:52.547Z,99.99
2017-06-11T04:02:33.088Z,99.99
2017-06-11T04:03:13.633Z,99.99
2017-06-11T04:03:54.177Z,99.99
2017-06-11T04:04:34.728Z,99.99
2017-06-11T04:05:15.270Z,99.99
2017-06-11T04:05:55.817Z,99.99
2017-06-11T04:06:36.378Z,99.99
2017-06-11T04:07:16.922Z,99.99
2017-06-11T04:07:57.461Z,99.99
2017-06-11T04:08:37.999Z,99.99
2017-06-11T04:09:18.558Z,99.99
2017-06-11T04:09:59.076Z,99.99
2017-06-11T04:10:39.615Z,99.99
2017-06-11T04:11:20.160Z,99.99
2017-06-11T04:12:00.702Z,99.99
2017-06-11T04:12:41.243Z,99.99
2017-06-11T04:13:21.786Z,99.99
2017-06-11T04:14:02.335Z,99.99
2017-06-11T04:14:42.879Z,99.99
2017-06-11T04:15:23.425Z,99.99
2017-06-11T04:16:03.966Z,99.99
2017-06-11T04:16:44.510Z,99.99
2017-06-11T04:17:25.043Z,99.99
2017-06-11T04:18:05.587Z,99.99
2017-06-11T04:18:46.159Z,99.99
2017-06-11T04:19:26.674Z,99.99
2017-06-11T04:20:07.215Z,99.99
2017-06-11T04:20:47.752Z,99.99
2017-06-11T04:21:28.296Z,99.99
2017-06-11T04:22:08.850Z,99.99
2017-06-11T04:22:49.368Z,99.99
2017-06-11T04:23:29.924Z,99.99
2017-06-11T04:24:10.467Z,99.99
2017-06-11T04:24:50.994Z,99.99
2017-06-11T04:25:31.533Z,99.99
2017-06-11T04:26:12.072Z,99.99
2017-06-11T04:26:52.626Z,99.99
2017-06-11T04:27:33.194Z,99.99
2017-06-11T04:28:13.737Z,99.99
2017-06-11T04:28:54.299Z,99.99
2017-06-11T04:29:34.816Z,99.99
2017-06-11T04:30:15.361Z,99.99
2017-06-11T04:30:55.904Z,99.99
2017-06-11T04:31:36.445Z,99.99
2017-06-11T04:32:16.979Z,99.99
2017-06-11T04:32:57.522Z,99.99
2017-06-11T04:33:38.068Z,99.99
2017-06-11T04:34:18.632Z,99.99
2017-06-11T04:34:59.144Z,99.99
2017-06-11T04:35:39.686Z,99.99
2017-06-11T04:36:20.231Z,99.99
2017-06-11T04:37:00.773Z,99.99
2017-06-11T04:37:41.325Z,99.99
2017-06-11T04:38:21.866Z,99.99
2017-06-11T04:39:02.410Z,99.99
2017-06-11T04:39:42.962Z,99.99
2017-06-11T04:40:23.514Z,99.99
2017-06-11T04:41:04.057Z,99.99
2017-06-11T04:41:44.609Z,99.99
2017-06-11T04:42:25.144Z,99.99
2017-06-11T04:43:05.685Z,99.99
2017-06-11T04:43:46.230Z,99.99
2017-06-11T04:44:26.771Z,99.99
2017-06-11T04:45:07.304Z,99.99
2017-06-11T04:45:47.851Z,99.99
2017-06-11T04:46:28.377Z,99.99
2017-06-11T04:47:08.920Z,99.99
2017-06-11T04:47:49.465Z,99.99
2017-06-11T04:48:30.010Z,99.99
2017-06-11T04:49:10.553Z,99.99
2017-06-11T04:49:51.086Z,99.99
2017-06-11T04:50:31.627Z,99.99
2017-06-11T04:51:12.153Z,99.99
2017-06-11T04:51:52.701Z,99.99
2017-06-11T04:52:33.250Z,99.99
2017-06-11T04:53:13.793Z,99.99
2017-06-11T04:53:54.334Z,99.99
2017-06-11T04:54:34.887Z,99.99
2017-06-11T04:55:15.451Z,99.99
2017-06-11T04:55:55.998Z,99.99
2017-06-11T04:56:36.542Z,99.99
2017-06-11T04:57:17.129Z,99.99
2017-06-11T04:57:57.665Z,99.99
2017-06-11T04:58:38.207Z,99.99
2017-06-11T04:59:18.751Z,99.99
2017-06-11T04:59:59.331Z,99.99
2017-06-11T05:00:39.892Z,99.99
2017-06-11T05:01:20.434Z,99.99
2017-06-11T05:02:00.983Z,99.99
2017-06-11T05:02:41.526Z,99.99
2017-06-11T05:03:22.069Z,99.99
2017-06-11T05:04:02.613Z,99.99
2017-06-11T05:04:43.155Z,99.99
2017-06-11T05:05:23.700Z,99.99
2017-06-11T05:06:04.253Z,99.99
2017-06-11T05:06:44.806Z,99.99
2017-06-11T05:07:25.348Z,99.99
2017-06-11T05:08:05.895Z,99.99
2017-06-11T05:08:46.440Z,99.99
2017-06-11T05:09:26.982Z,99.99
2017-06-11T05:10:07.531Z,99.99
2017-06-11T05:10:48.074Z,99.99
2017-06-11T05:11:29.116Z,99.99
2017-06-11T05:12:09.657Z,99.99
2017-06-11T05:12:50.205Z,99.99
2017-06-11T05:13:30.739Z,99.99
2017-06-11T05:14:11.290Z,99.99
2017-06-11T05:14:51.824Z,99.99
2017-06-11T05:15:32.371Z,99.99
2017-06-11T05:16:12.915Z,99.99
2017-06-11T05:16:53.458Z,99.99
2017-06-11T05:17:33.994Z,99.99
2017-06-11T05:18:14.541Z,99.99
2017-06-11T05:18:55.062Z,99.99
2017-06-11T05:19:35.599Z,99.99
2017-06-11T05:20:16.143Z,99.99
2017-06-11T05:20:56.698Z,99.99
2017-06-11T05:21:37.242Z,99.99
2017-06-11T05:22:17.786Z,99.99
2017-06-11T05:22:58.328Z,99.99
2017-06-11T05:23:38.875Z,99.99
2017-06-11T05:24:19.418Z,99.99
2017-06-11T05:24:59.961Z,99.99
2017-06-11T05:25:40.511Z,99.99
2017-06-11T05:26:21.046Z,99.99
2017-06-11T05:27:01.589Z,99.99
2017-06-11T05:27:42.128Z,99.99
2017-06-11T05:28:22.681Z,99.99
2017-06-11T05:29:03.203Z,99.99
2017-06-11T05:29:43.754Z,99.99
2017-06-11T05:30:24.303Z,99.99
2017-06-11T05:31:04.847Z,99.99
2017-06-11T05:31:45.390Z,99.99
2017-06-11T05:32:25.939Z,99.99
2017-06-11T05:33:06.486Z,99.99
2017-06-11T05:33:47.035Z,99.99
2017-06-11T05:34:27.581Z,99.99
2017-06-11T05:35:08.130Z,99.99
2017-06-11T05:35:48.674Z,99.99
2017-06-11T05:36:29.220Z,99.99
2017-06-11T05:37:09.757Z,99.99
2017-06-11T05:37:50.339Z,99.99
2017-06-11T05:38:30.953Z,99.99
2017-06-11T05:39:11.493Z,99.99
2017-06-11T05:39:52.030Z,99.99
2017-06-11T05:40:32.608Z,99.99
2017-06-11T05:41:13.148Z,99.99
2017-06-11T05:41:53.687Z,99.99
2017-06-11T05:42:34.339Z,99.99
2017-06-11T05:43:14.780Z,99.99
2017-06-11T05:43:55.326Z,99.99
2017-06-11T05:44:35.871Z,99.99
2017-06-11T05:45:16.416Z,99.99
2017-06-11T05:45:56.964Z,99.99
2017-06-11T05:46:37.512Z,99.99
2017-06-11T05:47:18.057Z,99.99
2017-06-11T05:47:58.581Z,99.99
2017-06-11T05:48:39.120Z,99.99
2017-06-11T05:49:19.663Z,99.99
2017-06-11T05:50:01.087Z,99.99
2017-06-11T05:50:42.755Z,99.99
2017-06-11T05:51:23.933Z,99.99
2017-06-11T05:52:04.472Z,99.99
2017-06-11T05:52:45.019Z,99.99
2017-06-11T05:53:25.564Z,99.99
2017-06-11T05:54:06.112Z,99.99
2017-06-11T05:54:46.706Z,99.99
2017-06-11T05:55:27.252Z,99.99
2017-06-11T05:56:07.798Z,99.99
2017-06-11T05:56:48.359Z,99.99
2017-06-11T05:57:28.905Z,99.99
2017-06-11T05:58:09.451Z,99.99
2017-06-11T05:58:49.982Z,99.99
2017-06-11T05:59:30.528Z,99.99
2017-06-11T06:00:11.071Z,99.99
2017-06-11T06:00:51.613Z,99.99
2017-06-11T06:01:32.158Z,99.99
2017-06-11T06:02:12.699Z,99.99
2017-06-11T06:02:53.241Z,99.99
2017-06-11T06:03:33.994Z,99.99
2017-06-11T06:04:14.640Z,99.99
2017-06-11T06:04:55.175Z,99.99
2017-06-11T06:05:35.721Z,99.99
2017-06-11T06:06:16.270Z,99.99
2017-06-11T06:06:56.812Z,99.99
2017-06-11T06:07:37.356Z,99.99
2017-06-11T06:08:17.907Z,99.99
2017-06-11T06:08:58.460Z,99.99
2017-06-11T06:09:39.006Z,99.99
2017-06-11T06:10:19.552Z,99.99
2017-06-11T06:11:00.091Z,99.99
2017-06-11T06:11:40.635Z,99.99
2017-06-11T06:12:21.174Z,99.99
2017-06-11T06:13:01.716Z,99.99
2017-06-11T06:13:42.263Z,99.99
2017-06-11T06:14:22.797Z,99.99
2017-06-11T06:15:03.337Z,99.99
2017-06-11T06:15:43.877Z,99.99
2017-06-11T06:16:24.426Z,99.99
2017-06-11T06:17:04.969Z,99.99
2017-06-11T06:17:45.513Z,99.99
2017-06-11T06:18:26.158Z,99.99
2017-06-11T06:19:06.689Z,99.99
2017-06-11T06:19:47.238Z,99.99
2017-06-11T06:20:27.772Z,99.99
2017-06-11T06:21:08.321Z,99.99
2017-06-11T06:21:48.845Z,99.99
2017-06-11T06:22:29.392Z,99.99
2017-06-11T06:23:09.914Z,99.99
2017-06-11T06:23:50.454Z,99.99
2017-06-11T06:24:31.020Z,99.99
2017-06-11T06:25:11.543Z,99.99
2017-06-11T06:25:52.079Z,99.99
2017-06-11T06:26:32.633Z,99.99
2017-06-11T06:27:13.180Z,99.99
2017-06-11T06:27:53.714Z,99.99
2017-06-11T06:28:34.249Z,99.99
2017-06-11T06:29:14.789Z,99.99
2017-06-11T06:29:55.342Z,99.99
2017-06-11T06:30:35.959Z,99.99
2017-06-11T06:31:16.533Z,99.99
2017-06-11T06:31:57.084Z,99.99
2017-06-11T06:32:37.637Z,99.99
2017-06-11T06:33:18.167Z,99.99
2017-06-11T06:33:58.705Z,99.99
2017-06-11T06:34:39.244Z,99.99
2017-06-11T06:35:19.794Z,99.99
2017-06-11T06:36:00.335Z,99.99
2017-06-11T06:36:40.896Z,99.99
2017-06-11T06:37:21.425Z,99.99
2017-06-11T06:38:01.969Z,99.99
2017-06-11T06:38:42.573Z,99.99
2017-06-11T06:39:23.108Z,99.99
2017-06-11T06:40:03.651Z,99.99
2017-06-11T06:40:44.193Z,99.99
2017-06-11T06:41:24.742Z,99.99
2017-06-11T06:42:05.282Z,99.99
2017-06-11T06:42:45.830Z,99.99
2017-06-11T06:43:26.362Z,99.99
2017-06-11T06:44:06.918Z,99.99
2017-06-11T06:44:47.461Z,99.99
2017-06-11T06:45:28.006Z,99.99
2017-06-11T06:46:08.565Z,99.99
2017-06-11T06:46:49.101Z,99.99
2017-06-11T06:47:29.640Z,99.99
2017-06-11T06:48:10.187Z,99.99
2017-06-11T06:48:50.736Z,99.99
2017-06-11T06:49:31.268Z,99.99
2017-06-11T06:50:11.821Z,99.99
2017-06-11T06:50:52.358Z,99.99
2017-06-11T06:51:32.899Z,99.99
2017-06-11T06:52:13.444Z,99.99
2017-06-11T06:52:53.996Z,99.99
2017-06-11T06:53:34.536Z,99.99
2017-06-11T06:54:15.083Z,99.99
2017-06-11T06:54:55.636Z,99.99
2017-06-11T06:55:36.181Z,99.99
2017-06-11T06:56:16.732Z,99.99
2017-06-11T06:56:57.277Z,99.99
2017-06-11T06:57:37.827Z,99.99
2017-06-11T06:58:18.378Z,99.99
2017-06-11T06:58:58.928Z,99.99
2017-06-11T06:59:39.473Z,99.99
2017-06-11T07:00:20.021Z,99.99
2017-06-11T07:01:00.574Z,99.99
2017-06-11T07:01:41.119Z,99.99
2017-06-11T07:02:21.675Z,99.99
2017-06-11T07:03:02.219Z,99.99
2017-06-11T07:03:42.742Z,99.99
2017-06-11T07:04:23.275Z,99.99
2017-06-11T07:05:03.795Z,99.99
2017-06-11T07:05:44.337Z,99.99
2017-06-11T07:06:24.890Z,99.99
2017-06-11T07:07:05.444Z,99.99
2017-06-11T07:07:45.995Z,99.99
2017-06-11T07:08:26.526Z,99.99
2017-06-11T07:09:07.058Z,99.99
2017-06-11T07:09:47.572Z,99.99
2017-06-11T07:10:28.082Z,99.99
2017-06-11T07:11:08.620Z,99.99
2017-06-11T07:11:49.184Z,99.99
2017-06-11T07:12:29.760Z,99.99
2017-06-11T07:13:10.296Z,99.99
2017-06-11T07:13:50.830Z,99.99
2017-06-11T07:14:31.373Z,99.99
2017-06-11T07:15:11.892Z,99.99
2017-06-11T07:15:52.423Z,99.99
2017-06-11T07:16:32.945Z,99.99
2017-06-11T07:17:13.477Z,99.99
2017-06-11T07:17:54.024Z,99.99
2017-06-11T07:18:34.583Z,99.99
2017-06-11T07:19:15.140Z,99.99
2017-06-11T07:19:55.698Z,99.99
2017-06-11T07:20:36.227Z,99.99
2017-06-11T07:21:16.797Z,99.99
2017-06-11T07:21:57.283Z,99.99
2017-06-11T07:22:37.817Z,99.99
2017-06-11T07:23:18.361Z,99.99
2017-06-11T07:23:58.905Z,99.99
2017-06-11T07:24:39.454Z,99.99
2017-06-11T07:25:19.975Z,99.99
2017-06-11T07:26:00.521Z,99.99
2017-06-11T07:26:41.059Z,99.99
2017-06-11T07:27:21.567Z,99.99
2017-06-11T07:28:02.105Z,99.99
2017-06-11T07:28:42.647Z,99.99
2017-06-11T07:29:23.200Z,99.99
2017-06-11T07:30:03.756Z,99.99
2017-06-11T07:30:44.282Z,99.99
2017-06-11T07:31:24.830Z,99.99
2017-06-11T07:32:05.384Z,99.99
2017-06-11T07:32:45.929Z,99.99
2017-06-11T07:33:26.490Z,99.99
2017-06-11T07:34:06.992Z,99.99
2017-06-11T07:34:47.546Z,99.99
2017-06-11T07:35:28.088Z,99.99
2017-06-11T07:36:08.631Z,99.99
2017-06-11T07:36:49.166Z,99.99
2017-06-11T07:37:29.707Z,99.99
2017-06-11T07:38:10.232Z,99.99
2017-06-11T07:38:50.771Z,99.99
2017-06-11T07:39:31.296Z,99.99
2017-06-11T07:40:11.822Z,99.99
2017-06-11T07:40:52.348Z,99.99
2017-06-11T07:41:33.577Z,99.99
2017-06-11T07:42:14.465Z,99.99
2017-06-11T07:42:54.987Z,99.99
2017-06-11T07:43:35.501Z,99.99
2017-06-11T07:44:16.041Z,99.99
2017-06-11T07:44:56.572Z,99.99
2017-06-11T07:45:37.117Z,99.99
2017-06-11T07:46:17.665Z,99.99
2017-06-11T07:46:58.206Z,99.99
2017-06-11T07:47:38.737Z,99.99
2017-06-11T07:48:19.272Z,99.99
2017-06-11T07:48:59.832Z,99.99
2017-06-11T07:49:40.372Z,99.99
2017-06-11T07:50:20.927Z,99.99
2017-06-11T07:51:01.481Z,99.99
2017-06-11T07:51:42.043Z,99.99
2017-06-11T07:52:22.602Z,99.99
2017-06-11T07:53:03.142Z,99.99
2017-06-11T07:53:44.335Z,99.99
2017-06-11T07:54:24.831Z,99.99
2017-06-11T07:55:05.353Z,99.99
2017-06-11T07:55:45.915Z,99.99
2017-06-11T07:56:26.459Z,99.99
2017-06-11T07:57:07.012Z,99.99
2017-06-11T07:57:47.572Z,99.99
2017-06-11T07:58:28.121Z,99.99
2017-06-11T07:59:08.663Z,99.99
2017-06-11T07:59:49.196Z,99.99
2017-06-11T08:00:29.740Z,99.99
2017-06-11T08:01:10.275Z,99.99
2017-06-11T08:01:50.850Z,99.99
2017-06-11T08:02:31.374Z,99.99
2017-06-11T08:03:11.913Z,99.99
2017-06-11T08:03:52.461Z,99.99
2017-06-11T08:04:33.011Z,99.99
2017-06-11T08:05:13.566Z,99.99
2017-06-11T08:05:54.085Z,99.99
2017-06-11T08:06:34.637Z,99.99
2017-06-11T08:07:15.201Z,99.65
2017-06-11T08:07:55.770Z,99.6
2017-06-11T08:08:36.335Z,99.79
2017-06-11T08:09:16.832Z,98.15
2017-06-11T08:09:57.400Z,96.46
2017-06-11T08:10:37.964Z,95.49
2017-06-11T08:11:18.523Z,93.94
2017-06-11T08:11:59.041Z,93.41
2017-06-11T08:12:39.607Z,90.8
2017-06-11T08:13:20.155Z,89.88
2017-06-11T08:14:00.708Z,88.91
2017-06-11T08:14:41.240Z,88.71
2017-06-11T08:15:21.788Z,88.76
2017-06-11T08:16:02.341Z,87.17
2017-06-11T08:16:42.889Z,86.4
2017-06-11T08:17:23.421Z,86.3
2017-06-11T08:18:03.975Z,86.2
2017-06-11T08:18:44.525Z,85.52
2017-06-11T08:19:25.056Z,85.24
2017-06-11T08:20:05.571Z,85.24
2017-06-11T08:20:46.091Z,83.92
2017-06-11T08:21:26.633Z,84.01
2017-06-11T08:22:07.173Z,83.83
2017-06-11T08:22:47.739Z,81.98
2017-06-11T08:23:28.281Z,80.92
2017-06-11T08:24:08.830Z,79.76
2017-06-11T08:24:49.372Z,78.69
2017-06-11T08:25:29.920Z,77.92
2017-06-11T08:26:10.449Z,77.44
2017-06-11T08:26:51.011Z,76.7
2017-06-11T08:27:31.552Z,75.92
2017-06-11T08:28:12.147Z,75.15
2017-06-11T08:28:52.709Z,74.38
2017-06-11T08:29:33.261Z,73.05
2017-06-11T08:30:13.799Z,72.31
2017-06-11T08:30:54.344Z,70.67
2017-06-11T08:31:34.885Z,69.44
2017-06-11T08:32:15.431Z,68.02
2017-06-11T08:32:56.068Z,67.34
2017-06-11T08:33:36.606Z,65.72
2017-06-11T08:34:17.119Z,64.07
2017-06-11T08:34:57.668Z,62.74
2017-06-11T08:35:38.234Z,60.9
2017-06-11T08:36:18.768Z,59.05
2017-06-11T08:36:59.328Z,59.44
2017-06-11T08:37:39.860Z,58.67
2017-06-11T08:38:20.400Z,58.67
2017-06-11T08:39:00.981Z,57.11
2017-06-11T08:39:41.558Z,56.75
2017-06-11T08:40:22.119Z,56
2017-06-11T08:41:02.650Z,54.93
2017-06-11T08:41:43.164Z,54.18
2017-06-11T08:42:23.752Z,53.59
2017-06-11T08:43:04.323Z,52.53